Time;durP1;ratioP1;P1;durP2;ratioP2;P2;SDS_P1;SDS_P2;PMS_P1;PMS_P2;Temp;Humidity;BMP_temperature;BMP_pressure;BME280_temperature;BME280_humidity;BME280_pressure;Samples;Min_cycle;Max_cycle;Signal;HPM_P1;HPM_P2
2022/03/03 07:37:40;;;;;;;18.43;12.27;;;;;;;;;;7134401;19;20501;-80
2022/03/03 07:40:08;;;;;;;20.33;14.27;;;;;;;;;;6928305;19;20198;-81
2022/03/03 07:42:34;;;;;;;23.97;15.57;;;;;;;;;;7305676;19;20201;-80
2022/03/03 07:45:03;;;;;;;22.00;15.00;;;;;;;;;;7423640;19;20588;-79
2022/03/03 07:47:29;;;;;;;19.67;14.80;;;;;;;;;;7420039;19;20182;-80
2022/03/03 07:49:56;;;;;;;20.70;15.10;;;;;;;;;;7422900;19;20140;-80
2022/03/03 07:52:21;;;;;;;20.77;15.30;;;;;;;;;;7421730;19;20557;-80
2022/03/03 07:54:47;;;;;;;17.10;14.13;;;;;;;;;;7420501;19;20139;-79
2022/03/03 07:57:15;;;;;;;18.27;13.80;;;;;;;;;;7419653;19;20151;-79
2022/03/03 07:59:48;;;;;;;20.33;15.13;;;;;;;;;;7227067;19;20198;-79
2022/03/03 08:02:21;;;;;;;22.37;15.17;;;;;;;;;;7053873;19;1464558;-80
2022/03/03 08:04:46;;;;;;;17.70;12.93;;;;;;;;;;7310946;19;20203;-79
2022/03/03 08:07:14;;;;;;;16.70;13.13;;;;;;;;;;7272593;19;20206;-81
2022/03/03 08:09:43;;;;;;;17.27;13.27;;;;;;;;;;7420985;19;20154;-80
2022/03/03 08:12:19;;;;;;;16.70;12.63;;;;;;;;;;7423610;19;20143;-81
2022/03/03 08:14:46;;;;;;;17.70;13.37;;;;;;;;;;7421338;19;20150;-81
2022/03/03 08:17:14;;;;;;;18.50;13.93;;;;;;;;;;7418275;19;20157;-81
2022/03/03 08:19:42;;;;;;;22.37;14.47;;;;;;;;;;7420880;19;20154;-80
2022/03/03 08:22:09;;;;;;;15.67;13.13;;;;;;;;;;7421719;19;20644;-80
2022/03/03 08:24:35;;;;;;;17.10;13.33;;;;;;;;;;7301068;19;20278;-81
2022/03/03 08:27:03;;;;;;;16.03;12.70;;;;;;;;;;7419961;19;20609;-80
2022/03/03 08:29:28;;;;;;;16.97;13.40;;;;;;;;;;7420821;19;20152;-80
2022/03/03 08:31:56;;;;;;;16.90;13.70;;;;;;;;;;7421185;19;20127;-80
2022/03/03 08:34:34;;;;;;;18.90;13.53;;;;;;;;;;7421984;19;20139;-80
2022/03/03 08:37:03;;;;;;;18.33;14.40;;;;;;;;;;7420748;19;20155;-80
2022/03/03 08:39:30;;;;;;;18.23;14.00;;;;;;;;;;7421010;19;20130;-80
2022/03/03 08:41:58;;;;;;;18.03;14.00;;;;;;;;;;7420385;19;20607;-80
2022/03/03 08:44:32;;;;;;;19.00;14.67;;;;;;;;;;7419452;19;20135;-80
2022/03/03 08:46:58;;;;;;;20.03;14.50;;;;;;;;;;7412602;19;20147;-80
2022/03/03 08:49:29;;;;;;;19.20;13.07;;;;;;;;;;7392312;19;20567;-80
2022/03/03 08:51:55;;;;;;;16.60;13.53;;;;;;;;;;7395525;19;20124;-79
2022/03/03 08:54:21;;;;;;;24.93;14.87;;;;;;;;;;7392800;19;20590;-80
2022/03/03 08:56:47;;;;;;;19.07;14.43;;;;;;;;;;7389092;19;20172;-80
2022/03/03 08:59:12;;;;;;;20.17;14.57;;;;;;;;;;7391895;19;20135;-80
2022/03/03 09:01:37;;;;;;;20.90;14.80;;;;;;;;;;7393405;19;20124;-80
2022/03/03 09:04:03;;;;;;;17.53;14.63;;;;;;;;;;7390303;19;20158;-81
2022/03/03 09:06:28;;;;;;;22.30;14.87;;;;;;;;;;7390411;19;20186;-80
2022/03/03 09:08:53;;;;;;;18.87;15.07;;;;;;;;;;7392920;19;20116;-80
2022/03/03 09:11:20;;;;;;;18.17;14.60;;;;;;;;;;7391997;19;20194;-79
2022/03/03 09:13:46;;;;;;;20.83;14.33;;;;;;;;;;7394694;19;20131;-80
2022/03/03 09:16:12;;;;;;;16.47;13.30;;;;;;;;;;7391183;19;20144;-80
2022/03/03 09:18:37;;;;;;;19.07;13.93;;;;;;;;;;7389405;19;20132;-80
2022/03/03 09:21:03;;;;;;;17.17;13.57;;;;;;;;;;7391629;19;20159;-80
2022/03/03 09:23:28;;;;;;;19.13;14.03;;;;;;;;;;7391219;19;20602;-80
2022/03/03 09:25:54;;;;;;;18.47;14.90;;;;;;;;;;7393024;19;20135;-80
2022/03/03 09:28:20;;;;;;;16.80;14.03;;;;;;;;;;7388746;19;20155;-80
2022/03/03 09:30:45;;;;;;;16.07;14.20;;;;;;;;;;7390692;19;20479;-80
2022/03/03 09:33:10;;;;;;;18.67;14.27;;;;;;;;;;7389673;19;20470;-80
2022/03/03 09:35:36;;;;;;;17.10;12.67;;;;;;;;;;7317067;19;20182;-80
2022/03/03 09:38:01;;;;;;;200.67;49.87;;;;;;;;;;7388650;19;20161;-79
2022/03/03 09:40:27;;;;;;;33.80;17.00;;;;;;;;;;7387998;19;20120;-79
2022/03/03 09:43:05;;;;;;;17.37;13.97;;;;;;;;;;7224341;19;20255;-80
2022/03/03 09:45:33;;;;;;;17.10;13.30;;;;;;;;;;7387803;19;20155;-81
2022/03/03 09:48:00;;;;;;;24.73;15.90;;;;;;;;;;7388819;19;20180;-81
2022/03/03 09:50:26;;;;;;;25.17;15.00;;;;;;;;;;7390214;19;20131;-81
2022/03/03 09:52:53;;;;;;;23.40;16.20;;;;;;;;;;7388387;19;20580;-82
2022/03/03 09:55:20;;;;;;;18.90;15.60;;;;;;;;;;7386898;19;20856;-82
2022/03/03 09:57:48;;;;;;;21.23;14.80;;;;;;;;;;7386906;19;20143;-82
2022/03/03 10:00:14;;;;;;;25.83;17.20;;;;;;;;;;7388395;19;20135;-82
2022/03/03 10:02:58;;;;;;;49.03;21.23;;;;;;;;;;7391884;19;20156;-83
2022/03/03 10:05:31;;;;;;;19.70;15.07;;;;;;;;;;7390542;19;20139;-82
2022/03/03 10:08:09;;;;;;;18.60;13.70;;;;;;;;;;7385673;19;20175;-82
2022/03/03 10:10:40;;;;;;;18.80;14.93;;;;;;;;;;7364617;19;20690;-82
2022/03/03 10:13:07;;;;;;;19.60;15.07;;;;;;;;;;7390281;19;20130;-82
2022/03/03 10:15:35;;;;;;;19.17;15.17;;;;;;;;;;7389845;19;21995;-83
2022/03/03 10:18:06;;;;;;;15.63;13.50;;;;;;;;;;7389858;19;20664;-83
2022/03/03 10:20:45;;;;;;;19.93;14.60;;;;;;;;;;7388751;19;20131;-82
2022/03/03 10:23:11;;;;;;;27.83;16.67;;;;;;;;;;7388367;19;20155;-82
2022/03/03 10:25:42;;;;;;;18.47;14.33;;;;;;;;;;7388362;19;20126;-84
2022/03/03 10:28:16;;;;;;;24.43;15.77;;;;;;;;;;7388008;19;20163;-83
2022/03/03 10:30:50;;;;;;;19.50;13.67;;;;;;;;;;7391630;19;20127;-80
2022/03/03 10:33:18;;;;;;;17.53;14.47;;;;;;;;;;7193052;19;20211;-79
2022/03/03 10:36:01;;;;;;;15.53;13.47;;;;;;;;;;7386983;19;20135;-80
2022/03/03 10:38:26;;;;;;;20.63;15.30;;;;;;;;;;7387659;19;20139;-80
2022/03/03 10:40:52;;;;;;;20.00;14.33;;;;;;;;;;7389144;19;20543;-78
2022/03/03 10:43:17;;;;;;;16.50;13.30;;;;;;;;;;7390790;19;20130;-78
2022/03/03 10:46:02;;;;;;;18.97;14.37;;;;;;;;;;7301115;19;20198;-80
2022/03/03 10:48:28;;;;;;;20.20;14.57;;;;;;;;;;7388495;19;20115;-80
2022/03/03 10:50:55;;;;;;;22.80;15.40;;;;;;;;;;7239861;19;20192;-80
2022/03/03 10:53:23;;;;;;;18.53;14.57;;;;;;;;;;7373782;19;20186;-80
2022/03/03 10:56:06;;;;;;;20.67;15.07;;;;;;;;;;7245427;19;20682;-80
2022/03/03 10:58:51;;;;;;;21.47;15.00;;;;;;;;;;7382167;19;20147;-78
2022/03/03 11:01:20;;;;;;;21.60;14.93;;;;;;;;;;7382612;19;20735;-76
2022/03/03 11:03:49;;;;;;;21.40;15.43;;;;;;;;;;7386098;19;20618;-78
2022/03/03 11:06:16;;;;;;;20.33;16.37;;;;;;;;;;7384713;19;20195;-77
2022/03/03 11:08:42;;;;;;;20.23;15.30;;;;;;;;;;7387164;19;20131;-77
2022/03/03 11:11:07;;;;;;;22.27;15.77;;;;;;;;;;7372584;19;20185;-78
2022/03/03 11:13:35;;;;;;;22.00;16.53;;;;;;;;;;7389021;19;20123;-79
2022/03/03 11:16:01;;;;;;;22.43;16.80;;;;;;;;;;7386393;19;20271;-77
2022/03/03 11:18:28;;;;;;;20.87;15.97;;;;;;;;;;7389365;19;20159;-78
2022/03/03 11:20:53;;;;;;;19.23;15.50;;;;;;;;;;7390735;19;20213;-78
2022/03/03 11:23:20;;;;;;;25.00;16.50;;;;;;;;;;7387945;19;20135;-78
2022/03/03 11:25:46;;;;;;;21.70;16.90;;;;;;;;;;7382679;19;20131;-79
2022/03/03 11:28:14;;;;;;;22.23;15.90;;;;;;;;;;7053134;19;20664;-77
2022/03/03 11:30:45;;;;;;;22.63;15.03;;;;;;;;;;7355594;19;20191;-78
2022/03/03 11:33:26;;;;;;;24.23;15.43;;;;;;;;;;7351060;19;20151;-78
2022/03/03 11:36:03;;;;;;;20.60;15.77;;;;;;;;;;7358952;19;20151;-79
2022/03/03 11:38:51;;;;;;;19.47;14.73;;;;;;;;;;7389640;19;20123;-79
2022/03/03 11:41:17;;;;;;;19.90;15.63;;;;;;;;;;7390300;19;20120;-79
2022/03/03 11:43:48;;;;;;;22.70;14.87;;;;;;;;;;7387333;19;20588;-78
2022/03/03 11:46:53;;;;;;;20.33;15.27;;;;;;;;;;7384811;19;20175;-81
2022/03/03 11:49:20;;;;;;;20.33;14.97;;;;;;;;;;6514815;19;5011262;-82
2022/03/03 18:28:40;;;;;;;3.00;2.45;;;;;;;;;;5032358;28;95111;-65
2022/03/03 18:31:06;;;;;;;4.10;2.30;;;;;;;;;;4988054;28;20280;-64
2022/03/03 18:33:32;;;;;;;5.82;2.50;;;;;;;;;;4977846;28;71788;-63
2022/03/03 18:38:54;;;;;;;2.50;2.30;;;;;;;;;;7221390;19;86770;-67
2022/03/03 18:41:22;;;;;;;2.72;2.28;;;;;;;;;;7417100;19;20176;-67
2022/03/03 18:43:50;;;;;;;5.75;2.40;;;;;;;;;;7416683;19;20147;-67
2022/03/03 18:46:17;;;;;;;6.07;2.22;;;;;;;;;;7409880;19;20130;-66
2022/03/03 18:48:46;;;;;;;3.05;2.13;;;;;;;;;;7408295;19;20134;-66
2022/03/03 18:51:15;;;;;;;12.93;2.37;;;;;;;;;;7230351;19;1507313;-70
2022/03/03 19:10:47;;;;;;;3.90;2.00;;;;;;;;;;7417496;19;20103;-71
2022/03/03 19:14:19;;;;;;;3.92;2.40;;;;;;;;;;7420084;19;20486;-63
2022/03/03 19:16:46;;;;;;;2.95;2.10;;;;;;;;;;7418971;19;20131;-63
2022/03/03 19:19:11;;;;;;;3.35;2.13;;;;;;;;;;7415998;19;20123;-62
2022/03/03 19:21:37;;;;;;;4.80;1.90;;;;;;;;;;7419793;19;20111;-64
2022/03/03 19:24:03;;;;;;;3.10;2.13;;;;;;;;;;7418302;19;20253;-62
2022/03/03 19:26:28;;;;;;;3.00;2.08;;;;;;;;;;7417525;19;20126;-67
2022/03/03 19:28:53;;;;;;;4.15;2.20;;;;;;;;;;7340652;19;20190;-65
2022/03/03 19:31:19;;;;;;;4.13;2.20;;;;;;;;;;7399521;19;20194;-65
2022/03/03 19:36:28;;;;;;;4.78;2.20;;;;;;;;;;7288954;19;20215;-63
2022/03/03 19:38:53;;;;;;;5.60;2.95;;;;;;;;;;7420541;19;20659;-65
